sensor_id;sensor_type;location;lat;lon;timestamp;temperature;humidity
9209;DHT22;4639;48.862;9.188;2023-03-13T00:00:49;9.50;99.90
9209;DHT22;4639;48.862;9.188;2023-03-13T00:03:15;9.40;99.90
9209;DHT22;4639;48.862;9.188;2023-03-13T00:05:40;9.40;99.90
9209;DHT22;4639;48.862;9.188;2023-03-13T00:08:06;9.40;99.90
9209;DHT22;4639;48.862;9.188;2023-03-13T00:10:31;9.40;99.90
9209;DHT22;4639;48.862;9.188;2023-03-13T00:13:03;9.40;99.90
9209;DHT22;4639;48.862;9.188;2023-03-13T00:15:29;9.40;99.90
9209;DHT22;4639;48.862;9.188;2023-03-13T00:17:55;9.50;99.90
9209;DHT22;4639;48.862;9.188;2023-03-13T00:20:21;9.60;99.90
9209;DHT22;4639;48.862;9.188;2023-03-13T00:22:47;9.60;99.90
9209;DHT22;4639;48.862;9.188;2023-03-13T00:25:12;9.50;99.90
9209;DHT22;4639;48.862;9.188;2023-03-13T00:27:38;9.50;99.90
9209;DHT22;4639;48.862;9.188;2023-03-13T00:30:04;9.50;99.90
9209;DHT22;4639;48.862;9.188;2023-03-13T00:32:30;9.50;99.90
9209;DHT22;4639;48.862;9.188;2023-03-13T00:34:56;9.50;99.90
9209;DHT22;4639;48.862;9.188;2023-03-13T00:37:21;9.50;99.90
9209;DHT22;4639;48.862;9.188;2023-03-13T00:39:47;9.50;99.90
9209;DHT22;4639;48.862;9.188;2023-03-13T00:42:13;9.50;99.90
9209;DHT22;4639;48.862;9.188;2023-03-13T00:44:38;9.50;99.90
9209;DHT22;4639;48.862;9.188;2023-03-13T00:47:04;9.50;99.90
9209;DHT22;4639;48.862;9.188;2023-03-13T00:49:31;9.40;99.90
9209;DHT22;4639;48.862;9.188;2023-03-13T00:51:57;9.50;99.90
9209;DHT22;4639;48.862;9.188;2023-03-13T00:54:22;9.40;99.90
9209;DHT22;4639;48.862;9.188;2023-03-13T00:56:48;9.40;99.90
9209;DHT22;4639;48.862;9.188;2023-03-13T00:59:14;9.40;99.90
9209;DHT22;4639;48.862;9.188;2023-03-13T01:01:40;9.40;99.90
9209;DHT22;4639;48.862;9.188;2023-03-13T01:04:08;9.40;99.90
9209;DHT22;4639;48.862;9.188;2023-03-13T01:06:36;9.30;99.90
9209;DHT22;4639;48.862;9.188;2023-03-13T01:09:04;9.30;99.90
9209;DHT22;4639;48.862;9.188;2023-03-13T01:11:32;9.30;99.90
9209;DHT22;4639;48.862;9.188;2023-03-13T01:14:01;9.40;99.90
9209;DHT22;4639;48.862;9.188;2023-03-13T01:16:28;9.30;99.90
9209;DHT22;4639;48.862;9.188;2023-03-13T01:18:57;9.30;99.90
9209;DHT22;4639;48.862;9.188;2023-03-13T01:21:23;9.30;99.90
9209;DHT22;4639;48.862;9.188;2023-03-13T01:23:50;9.30;99.90
9209;DHT22;4639;48.862;9.188;2023-03-13T01:26:17;9.30;99.90
9209;DHT22;4639;48.862;9.188;2023-03-13T01:28:43;9.30;99.90
9209;DHT22;4639;48.862;9.188;2023-03-13T01:33:35;9.40;99.90
9209;DHT22;4639;48.862;9.188;2023-03-13T01:36:02;9.30;99.90
9209;DHT22;4639;48.862;9.188;2023-03-13T01:38:28;9.30;99.90
9209;DHT22;4639;48.862;9.188;2023-03-13T01:40:53;9.30;99.90
9209;DHT22;4639;48.862;9.188;2023-03-13T01:43:22;9.30;99.90
9209;DHT22;4639;48.862;9.188;2023-03-13T01:46:10;9.30;99.90
9209;DHT22;4639;48.862;9.188;2023-03-13T01:48:59;9.30;99.90
9209;DHT22;4639;48.862;9.188;2023-03-13T01:51:46;9.20;99.90
9209;DHT22;4639;48.862;9.188;2023-03-13T01:56:53;9.20;99.90
9209;DHT22;4639;48.862;9.188;2023-03-13T01:59:27;9.20;99.90
9209;DHT22;4639;48.862;9.188;2023-03-13T02:01:57;9.20;99.90
9209;DHT22;4639;48.862;9.188;2023-03-13T02:04:26;9.20;99.90
9209;DHT22;4639;48.862;9.188;2023-03-13T02:06:57;9.20;99.90
9209;DHT22;4639;48.862;9.188;2023-03-13T02:09:28;9.20;99.90
9209;DHT22;4639;48.862;9.188;2023-03-13T02:14:27;9.40;99.90
9209;DHT22;4639;48.862;9.188;2023-03-13T02:16:55;9.40;99.90
9209;DHT22;4639;48.862;9.188;2023-03-13T02:27:50;9.30;99.90
9209;DHT22;4639;48.862;9.188;2023-03-13T02:30:17;9.30;99.90
9209;DHT22;4639;48.862;9.188;2023-03-13T02:32:43;9.40;99.90
9209;DHT22;4639;48.862;9.188;2023-03-13T02:35:12;9.40;99.90
9209;DHT22;4639;48.862;9.188;2023-03-13T02:37:41;9.40;99.90
9209;DHT22;4639;48.862;9.188;2023-03-13T02:40:11;9.50;99.90
9209;DHT22;4639;48.862;9.188;2023-03-13T02:42:40;9.50;99.90
9209;DHT22;4639;48.862;9.188;2023-03-13T02:45:06;9.60;99.90
9209;DHT22;4639;48.862;9.188;2023-03-13T02:47:32;9.60;99.90
9209;DHT22;4639;48.862;9.188;2023-03-13T02:49:58;9.60;99.90
9209;DHT22;4639;48.862;9.188;2023-03-13T02:52:27;9.60;99.90
9209;DHT22;4639;48.862;9.188;2023-03-13T02:55:00;9.70;99.90
9209;DHT22;4639;48.862;9.188;2023-03-13T02:57:27;9.80;99.90
9209;DHT22;4639;48.862;9.188;2023-03-13T02:59:53;9.80;99.90
9209;DHT22;4639;48.862;9.188;2023-03-13T03:02:19;9.80;99.90
9209;DHT22;4639;48.862;9.188;2023-03-13T03:04:44;9.90;99.90
9209;DHT22;4639;48.862;9.188;2023-03-13T03:07:10;9.90;99.90
9209;DHT22;4639;48.862;9.188;2023-03-13T03:09:36;9.90;99.90
9209;DHT22;4639;48.862;9.188;2023-03-13T03:12:01;10.00;99.90
9209;DHT22;4639;48.862;9.188;2023-03-13T03:14:27;10.00;99.90
9209;DHT22;4639;48.862;9.188;2023-03-13T03:16:52;10.00;99.90
9209;DHT22;4639;48.862;9.188;2023-03-13T03:19:18;10.00;99.90
9209;DHT22;4639;48.862;9.188;2023-03-13T03:21:43;10.00;99.90
9209;DHT22;4639;48.862;9.188;2023-03-13T03:24:09;10.10;99.90
9209;DHT22;4639;48.862;9.188;2023-03-13T03:26:35;10.10;99.90
9209;DHT22;4639;48.862;9.188;2023-03-13T03:29:00;10.20;99.90
9209;DHT22;4639;48.862;9.188;2023-03-13T03:31:26;10.20;99.90
9209;DHT22;4639;48.862;9.188;2023-03-13T03:33:51;10.20;99.90
9209;DHT22;4639;48.862;9.188;2023-03-13T03:36:20;10.20;99.90
9209;DHT22;4639;48.862;9.188;2023-03-13T03:38:46;10.20;99.90
9209;DHT22;4639;48.862;9.188;2023-03-13T03:41:12;10.20;99.90
9209;DHT22;4639;48.862;9.188;2023-03-13T03:43:38;10.20;99.90
9209;DHT22;4639;48.862;9.188;2023-03-13T03:46:05;10.20;99.90
9209;DHT22;4639;48.862;9.188;2023-03-13T03:48:30;10.20;99.90
9209;DHT22;4639;48.862;9.188;2023-03-13T03:50:56;10.20;99.90
9209;DHT22;4639;48.862;9.188;2023-03-13T03:53:22;10.30;99.90
9209;DHT22;4639;48.862;9.188;2023-03-13T03:55:48;10.30;99.90
9209;DHT22;4639;48.862;9.188;2023-03-13T03:58:13;10.30;99.90
9209;DHT22;4639;48.862;9.188;2023-03-13T04:00:41;10.40;99.90
9209;DHT22;4639;48.862;9.188;2023-03-13T04:03:07;10.40;99.90
9209;DHT22;4639;48.862;9.188;2023-03-13T04:05:32;10.50;99.90
9209;DHT22;4639;48.862;9.188;2023-03-13T04:07:58;10.60;99.90
9209;DHT22;4639;48.862;9.188;2023-03-13T04:10:23;10.60;99.90
9209;DHT22;4639;48.862;9.188;2023-03-13T04:12:49;10.60;99.90
9209;DHT22;4639;48.862;9.188;2023-03-13T04:15:15;10.60;99.90
9209;DHT22;4639;48.862;9.188;2023-03-13T04:17:40;10.70;99.90
9209;DHT22;4639;48.862;9.188;2023-03-13T04:20:06;10.70;99.90
9209;DHT22;4639;48.862;9.188;2023-03-13T04:22:33;10.70;99.90
9209;DHT22;4639;48.862;9.188;2023-03-13T04:24:59;10.70;99.90
9209;DHT22;4639;48.862;9.188;2023-03-13T04:27:25;10.70;99.90
9209;DHT22;4639;48.862;9.188;2023-03-13T04:29:50;10.80;99.90
9209;DHT22;4639;48.862;9.188;2023-03-13T04:32:16;10.90;99.90
9209;DHT22;4639;48.862;9.188;2023-03-13T04:34:41;11.00;99.90
9209;DHT22;4639;48.862;9.188;2023-03-13T04:37:07;11.10;99.90
9209;DHT22;4639;48.862;9.188;2023-03-13T04:39:32;11.30;99.90
9209;DHT22;4639;48.862;9.188;2023-03-13T04:41:58;11.40;99.90
9209;DHT22;4639;48.862;9.188;2023-03-13T04:44:23;11.60;99.90
9209;DHT22;4639;48.862;9.188;2023-03-13T04:46:49;11.70;99.90
9209;DHT22;4639;48.862;9.188;2023-03-13T04:49:15;11.90;99.90
9209;DHT22;4639;48.862;9.188;2023-03-13T04:51:41;11.90;99.90
9209;DHT22;4639;48.862;9.188;2023-03-13T04:54:07;12.10;99.90
9209;DHT22;4639;48.862;9.188;2023-03-13T04:56:33;12.10;99.90
9209;DHT22;4639;48.862;9.188;2023-03-13T04:58:59;12.20;99.90
9209;DHT22;4639;48.862;9.188;2023-03-13T05:01:24;12.30;99.90
9209;DHT22;4639;48.862;9.188;2023-03-13T05:03:50;12.30;99.90
9209;DHT22;4639;48.862;9.188;2023-03-13T05:06:15;12.30;99.90
9209;DHT22;4639;48.862;9.188;2023-03-13T05:08:41;12.30;99.90
9209;DHT22;4639;48.862;9.188;2023-03-13T05:11:07;12.30;99.90
9209;DHT22;4639;48.862;9.188;2023-03-13T05:13:33;12.30;99.90
9209;DHT22;4639;48.862;9.188;2023-03-13T05:15:58;12.40;99.90
9209;DHT22;4639;48.862;9.188;2023-03-13T05:18:24;12.40;99.90
9209;DHT22;4639;48.862;9.188;2023-03-13T05:20:49;12.40;99.90
9209;DHT22;4639;48.862;9.188;2023-03-13T05:23:15;12.40;99.90
9209;DHT22;4639;48.862;9.188;2023-03-13T05:25:40;12.40;99.90
9209;DHT22;4639;48.862;9.188;2023-03-13T05:28:06;12.40;99.90
9209;DHT22;4639;48.862;9.188;2023-03-13T05:30:32;12.40;99.90
9209;DHT22;4639;48.862;9.188;2023-03-13T05:32:57;12.40;99.90
9209;DHT22;4639;48.862;9.188;2023-03-13T05:35:23;12.40;99.90
9209;DHT22;4639;48.862;9.188;2023-03-13T05:37:49;12.40;99.90
9209;DHT22;4639;48.862;9.188;2023-03-13T05:40:15;12.40;99.90
9209;DHT22;4639;48.862;9.188;2023-03-13T05:42:40;12.40;99.90
9209;DHT22;4639;48.862;9.188;2023-03-13T05:45:07;12.50;99.90
9209;DHT22;4639;48.862;9.188;2023-03-13T05:47:35;12.50;99.90
9209;DHT22;4639;48.862;9.188;2023-03-13T05:50:03;12.50;99.90
9209;DHT22;4639;48.862;9.188;2023-03-13T05:52:29;12.50;99.90
9209;DHT22;4639;48.862;9.188;2023-03-13T05:54:55;12.40;99.90
9209;DHT22;4639;48.862;9.188;2023-03-13T05:57:20;12.50;99.90
9209;DHT22;4639;48.862;9.188;2023-03-13T05:59:46;12.50;99.90
9209;DHT22;4639;48.862;9.188;2023-03-13T06:02:12;12.50;99.90
9209;DHT22;4639;48.862;9.188;2023-03-13T06:04:37;12.50;99.90
9209;DHT22;4639;48.862;9.188;2023-03-13T06:07:03;12.60;99.90
9209;DHT22;4639;48.862;9.188;2023-03-13T06:09:28;12.60;99.90
9209;DHT22;4639;48.862;9.188;2023-03-13T06:11:54;12.60;99.90
9209;DHT22;4639;48.862;9.188;2023-03-13T06:14:19;12.70;99.90
9209;DHT22;4639;48.862;9.188;2023-03-13T06:16:45;12.70;99.90
9209;DHT22;4639;48.862;9.188;2023-03-13T06:19:11;12.60;99.90
9209;DHT22;4639;48.862;9.188;2023-03-13T06:21:39;12.70;99.90
9209;DHT22;4639;48.862;9.188;2023-03-13T06:24:05;12.70;99.90
9209;DHT22;4639;48.862;9.188;2023-03-13T06:26:34;12.80;99.90
9209;DHT22;4639;48.862;9.188;2023-03-13T06:28:59;12.80;99.90
9209;DHT22;4639;48.862;9.188;2023-03-13T06:31:25;12.80;99.90
9209;DHT22;4639;48.862;9.188;2023-03-13T06:33:54;12.90;99.90
9209;DHT22;4639;48.862;9.188;2023-03-13T06:36:24;12.90;99.90
9209;DHT22;4639;48.862;9.188;2023-03-13T06:38:50;13.00;99.90
9209;DHT22;4639;48.862;9.188;2023-03-13T06:41:15;12.90;99.90
9209;DHT22;4639;48.862;9.188;2023-03-13T06:43:41;13.00;99.90
9209;DHT22;4639;48.862;9.188;2023-03-13T06:46:07;13.00;99.90
9209;DHT22;4639;48.862;9.188;2023-03-13T06:48:39;13.00;99.90
9209;DHT22;4639;48.862;9.188;2023-03-13T06:51:10;13.00;99.90
9209;DHT22;4639;48.862;9.188;2023-03-13T06:53:36;13.00;99.90
9209;DHT22;4639;48.862;9.188;2023-03-13T06:56:01;13.00;99.90
9209;DHT22;4639;48.862;9.188;2023-03-13T06:58:27;13.00;99.90
9209;DHT22;4639;48.862;9.188;2023-03-13T07:00:53;13.00;99.90
9209;DHT22;4639;48.862;9.188;2023-03-13T07:03:18;13.10;99.90
9209;DHT22;4639;48.862;9.188;2023-03-13T07:05:44;13.00;99.90
9209;DHT22;4639;48.862;9.188;2023-03-13T07:08:09;13.00;99.90
9209;DHT22;4639;48.862;9.188;2023-03-13T07:10:35;13.00;99.90
9209;DHT22;4639;48.862;9.188;2023-03-13T07:13:00;13.00;99.90
9209;DHT22;4639;48.862;9.188;2023-03-13T07:15:26;13.00;99.90
9209;DHT22;4639;48.862;9.188;2023-03-13T07:17:51;13.10;99.90
9209;DHT22;4639;48.862;9.188;2023-03-13T07:20:17;13.10;99.90
9209;DHT22;4639;48.862;9.188;2023-03-13T07:22:43;13.20;99.90
9209;DHT22;4639;48.862;9.188;2023-03-13T07:25:08;13.20;99.90
9209;DHT22;4639;48.862;9.188;2023-03-13T07:27:34;13.10;99.90
9209;DHT22;4639;48.862;9.188;2023-03-13T07:30:00;13.10;99.90
9209;DHT22;4639;48.862;9.188;2023-03-13T07:32:30;13.20;99.90
9209;DHT22;4639;48.862;9.188;2023-03-13T07:34:56;13.20;99.90
9209;DHT22;4639;48.862;9.188;2023-03-13T07:37:21;13.20;99.90
9209;DHT22;4639;48.862;9.188;2023-03-13T07:39:47;13.30;99.90
9209;DHT22;4639;48.862;9.188;2023-03-13T07:42:12;13.20;99.90
9209;DHT22;4639;48.862;9.188;2023-03-13T07:44:38;13.20;99.90
9209;DHT22;4639;48.862;9.188;2023-03-13T07:47:04;13.20;99.90
9209;DHT22;4639;48.862;9.188;2023-03-13T07:49:29;13.30;99.90
9209;DHT22;4639;48.862;9.188;2023-03-13T07:51:55;13.30;99.90
9209;DHT22;4639;48.862;9.188;2023-03-13T07:54:21;13.30;99.90
9209;DHT22;4639;48.862;9.188;2023-03-13T07:56:46;13.30;99.90
9209;DHT22;4639;48.862;9.188;2023-03-13T07:59:13;13.30;99.90
9209;DHT22;4639;48.862;9.188;2023-03-13T08:01:38;13.30;99.90
9209;DHT22;4639;48.862;9.188;2023-03-13T08:04:04;13.40;99.90
9209;DHT22;4639;48.862;9.188;2023-03-13T08:06:32;13.40;99.90
9209;DHT22;4639;48.862;9.188;2023-03-13T08:08:59;13.50;99.90
9209;DHT22;4639;48.862;9.188;2023-03-13T08:11:27;13.60;99.90
9209;DHT22;4639;48.862;9.188;2023-03-13T08:13:54;13.60;99.90
9209;DHT22;4639;48.862;9.188;2023-03-13T08:16:25;13.70;99.90
9209;DHT22;4639;48.862;9.188;2023-03-13T08:18:53;13.80;99.90
9209;DHT22;4639;48.862;9.188;2023-03-13T08:21:30;13.90;99.90
9209;DHT22;4639;48.862;9.188;2023-03-13T08:23:58;13.90;99.90
9209;DHT22;4639;48.862;9.188;2023-03-13T08:26:27;14.00;99.90
9209;DHT22;4639;48.862;9.188;2023-03-13T08:29:05;14.00;99.90
9209;DHT22;4639;48.862;9.188;2023-03-13T08:31:36;14.10;99.90
9209;DHT22;4639;48.862;9.188;2023-03-13T08:34:02;14.20;99.90
9209;DHT22;4639;48.862;9.188;2023-03-13T08:36:31;14.30;99.90
9209;DHT22;4639;48.862;9.188;2023-03-13T08:39:03;14.30;99.90
9209;DHT22;4639;48.862;9.188;2023-03-13T08:41:32;14.40;99.90
9209;DHT22;4639;48.862;9.188;2023-03-13T08:43:59;14.30;99.90
9209;DHT22;4639;48.862;9.188;2023-03-13T08:46:25;14.50;99.90
9209;DHT22;4639;48.862;9.188;2023-03-13T08:48:51;14.50;99.90
9209;DHT22;4639;48.862;9.188;2023-03-13T08:51:18;14.60;99.90
9209;DHT22;4639;48.862;9.188;2023-03-13T08:53:44;14.50;99.90
9209;DHT22;4639;48.862;9.188;2023-03-13T08:56:12;14.60;99.90
9209;DHT22;4639;48.862;9.188;2023-03-13T08:58:38;14.60;99.90
9209;DHT22;4639;48.862;9.188;2023-03-13T09:03:34;14.70;99.90
9209;DHT22;4639;48.862;9.188;2023-03-13T09:06:00;14.70;99.90
9209;DHT22;4639;48.862;9.188;2023-03-13T09:08:27;14.70;99.90
9209;DHT22;4639;48.862;9.188;2023-03-13T09:10:57;14.70;99.90
9209;DHT22;4639;48.862;9.188;2023-03-13T09:13:24;14.70;99.90
9209;DHT22;4639;48.862;9.188;2023-03-13T09:16:00;14.70;99.90
9209;DHT22;4639;48.862;9.188;2023-03-13T09:18:27;14.80;99.90
9209;DHT22;4639;48.862;9.188;2023-03-13T09:20:53;14.80;99.90
9209;DHT22;4639;48.862;9.188;2023-03-13T09:23:19;14.80;99.90
9209;DHT22;4639;48.862;9.188;2023-03-13T09:25:45;14.80;99.90
9209;DHT22;4639;48.862;9.188;2023-03-13T09:28:11;14.90;99.90
9209;DHT22;4639;48.862;9.188;2023-03-13T09:30:37;15.00;99.90
9209;DHT22;4639;48.862;9.188;2023-03-13T09:33:02;15.20;99.90
9209;DHT22;4639;48.862;9.188;2023-03-13T09:35:28;15.60;99.90
9209;DHT22;4639;48.862;9.188;2023-03-13T09:37:53;15.60;99.90
9209;DHT22;4639;48.862;9.188;2023-03-13T09:40:21;15.50;99.90
9209;DHT22;4639;48.862;9.188;2023-03-13T09:42:54;15.40;99.90
9209;DHT22;4639;48.862;9.188;2023-03-13T09:45:34;15.50;99.90
9209;DHT22;4639;48.862;9.188;2023-03-13T09:48:36;15.20;99.90
9209;DHT22;4639;48.862;9.188;2023-03-13T09:51:23;15.30;99.90
9209;DHT22;4639;48.862;9.188;2023-03-13T09:56:44;15.80;99.90
9209;DHT22;4639;48.862;9.188;2023-03-13T09:59:23;16.20;99.90
9209;DHT22;4639;48.862;9.188;2023-03-13T10:01:53;16.70;99.90
9209;DHT22;4639;48.862;9.188;2023-03-13T10:04:27;16.70;99.90
9209;DHT22;4639;48.862;9.188;2023-03-13T10:06:55;16.60;99.90
9209;DHT22;4639;48.862;9.188;2023-03-13T10:09:38;16.40;99.90
9209;DHT22;4639;48.862;9.188;2023-03-13T10:12:19;16.60;99.90
9209;DHT22;4639;48.862;9.188;2023-03-13T10:15:15;16.70;99.90
9209;DHT22;4639;48.862;9.188;2023-03-13T10:17:43;16.50;99.90
9209;DHT22;4639;48.862;9.188;2023-03-13T10:20:24;16.20;99.90
9209;DHT22;4639;48.862;9.188;2023-03-13T10:23:05;16.40;99.90
9209;DHT22;4639;48.862;9.188;2023-03-13T10:25:36;17.00;99.90
9209;DHT22;4639;48.862;9.188;2023-03-13T10:28:10;17.40;99.90
9209;DHT22;4639;48.862;9.188;2023-03-13T10:30:37;17.50;99.90
9209;DHT22;4639;48.862;9.188;2023-03-13T10:35:35;17.70;99.90
9209;DHT22;4639;48.862;9.188;2023-03-13T10:38:14;17.50;99.90
9209;DHT22;4639;48.862;9.188;2023-03-13T10:40:41;17.40;99.90
9209;DHT22;4639;48.862;9.188;2023-03-13T10:43:18;17.40;99.90
9209;DHT22;4639;48.862;9.188;2023-03-13T10:45:44;17.40;99.90
9209;DHT22;4639;48.862;9.188;2023-03-13T10:48:21;17.30;99.90
9209;DHT22;4639;48.862;9.188;2023-03-13T10:50:49;17.20;99.90
9209;DHT22;4639;48.862;9.188;2023-03-13T10:55:52;16.90;99.90
9209;DHT22;4639;48.862;9.188;2023-03-13T10:58:48;16.90;99.90
9209;DHT22;4639;48.862;9.188;2023-03-13T11:03:50;17.80;99.90
9209;DHT22;4639;48.862;9.188;2023-03-13T11:06:29;18.10;99.90
9209;DHT22;4639;48.862;9.188;2023-03-13T11:09:12;18.30;99.90
9209;DHT22;4639;48.862;9.188;2023-03-13T11:11:53;18.50;99.90
9209;DHT22;4639;48.862;9.188;2023-03-13T11:14:21;18.60;99.90
9209;DHT22;4639;48.862;9.188;2023-03-13T11:28:25;17.50;99.90
9209;DHT22;4639;48.862;9.188;2023-03-13T11:31:04;17.70;99.90
9209;DHT22;4639;48.862;9.188;2023-03-13T11:36:05;18.10;99.90
9209;DHT22;4639;48.862;9.188;2023-03-13T11:38:39;18.10;99.90
9209;DHT22;4639;48.862;9.188;2023-03-13T11:49:43;18.20;99.90
9209;DHT22;4639;48.862;9.188;2023-03-13T11:57:30;18.80;99.90
9209;DHT22;4639;48.862;9.188;2023-03-13T12:00:23;19.10;99.90
9209;DHT22;4639;48.862;9.188;2023-03-13T12:03:00;19.40;99.90
9209;DHT22;4639;48.862;9.188;2023-03-13T12:05:39;19.70;99.90
9209;DHT22;4639;48.862;9.188;2023-03-13T12:11:02;20.20;99.90
9209;DHT22;4639;48.862;9.188;2023-03-13T12:13:39;20.00;99.90
9209;DHT22;4639;48.862;9.188;2023-03-13T12:16:13;19.90;99.90
9209;DHT22;4639;48.862;9.188;2023-03-13T12:18:41;19.80;99.90
9209;DHT22;4639;48.862;9.188;2023-03-13T12:21:17;20.00;99.90
9209;DHT22;4639;48.862;9.188;2023-03-13T12:23:59;20.10;99.90
9209;DHT22;4639;48.862;9.188;2023-03-13T12:26:43;20.10;99.90
9209;DHT22;4639;48.862;9.188;2023-03-13T12:35:13;20.30;99.90
9209;DHT22;4639;48.862;9.188;2023-03-13T12:37:52;20.40;99.90
9209;DHT22;4639;48.862;9.188;2023-03-13T12:40:20;20.40;99.90
9209;DHT22;4639;48.862;9.188;2023-03-13T12:42:55;20.00;99.90
9209;DHT22;4639;48.862;9.188;2023-03-13T12:45:23;20.20;99.90
9209;DHT22;4639;48.862;9.188;2023-03-13T12:55:48;20.70;99.90
9209;DHT22;4639;48.862;9.188;2023-03-13T12:58:36;20.70;99.90
9209;DHT22;4639;48.862;9.188;2023-03-13T13:01:04;20.90;99.90
9209;DHT22;4639;48.862;9.188;2023-03-13T13:03:38;21.10;99.90
9209;DHT22;4639;48.862;9.188;2023-03-13T13:06:08;21.20;99.90
9209;DHT22;4639;48.862;9.188;2023-03-13T13:08:40;21.20;99.90
9209;DHT22;4639;48.862;9.188;2023-03-13T13:19:43;21.00;99.90
9209;DHT22;4639;48.862;9.188;2023-03-13T13:30:28;21.10;99.90
9209;DHT22;4639;48.862;9.188;2023-03-13T13:35:39;20.80;99.90
9209;DHT22;4639;48.862;9.188;2023-03-13T13:43:37;20.70;99.90
9209;DHT22;4639;48.862;9.188;2023-03-13T13:46:25;20.70;99.90
9209;DHT22;4639;48.862;9.188;2023-03-13T13:51:36;21.10;99.90
9209;DHT22;4639;48.862;9.188;2023-03-13T13:57:20;21.20;99.90
9209;DHT22;4639;48.862;9.188;2023-03-13T13:59:53;21.10;99.90
9209;DHT22;4639;48.862;9.188;2023-03-13T14:05:03;21.00;99.90
9209;DHT22;4639;48.862;9.188;2023-03-13T14:10:36;21.00;99.90
9209;DHT22;4639;48.862;9.188;2023-03-13T14:13:18;21.00;99.90
9209;DHT22;4639;48.862;9.188;2023-03-13T14:15:49;21.10;99.90
9209;DHT22;4639;48.862;9.188;2023-03-13T14:18:28;21.30;99.90
9209;DHT22;4639;48.862;9.188;2023-03-13T14:20:59;21.20;99.90
9209;DHT22;4639;48.862;9.188;2023-03-13T14:23:32;21.30;99.90
9209;DHT22;4639;48.862;9.188;2023-03-13T14:26:12;21.40;99.90
9209;DHT22;4639;48.862;9.188;2023-03-13T14:28:41;21.60;99.90
9209;DHT22;4639;48.862;9.188;2023-03-13T14:31:07;21.90;99.90
9209;DHT22;4639;48.862;9.188;2023-03-13T14:33:34;21.80;99.90
9209;DHT22;4639;48.862;9.188;2023-03-13T14:36:00;21.70;99.90
9209;DHT22;4639;48.862;9.188;2023-03-13T14:38:27;21.80;99.90
9209;DHT22;4639;48.862;9.188;2023-03-13T14:40:58;22.00;99.90
9209;DHT22;4639;48.862;9.188;2023-03-13T14:43:29;22.10;99.90
9209;DHT22;4639;48.862;9.188;2023-03-13T14:45:57;22.10;99.90
9209;DHT22;4639;48.862;9.188;2023-03-13T14:48:28;22.10;99.90
9209;DHT22;4639;48.862;9.188;2023-03-13T14:51:25;22.30;99.90
9209;DHT22;4639;48.862;9.188;2023-03-13T14:59:34;22.30;99.90
9209;DHT22;4639;48.862;9.188;2023-03-13T15:02:14;22.50;99.90
9209;DHT22;4639;48.862;9.188;2023-03-13T15:05:02;22.80;99.90
9209;DHT22;4639;48.862;9.188;2023-03-13T15:07:46;22.70;99.90
9209;DHT22;4639;48.862;9.188;2023-03-13T15:12:45;22.80;99.90
9209;DHT22;4639;48.862;9.188;2023-03-13T15:15:11;23.00;99.90
9209;DHT22;4639;48.862;9.188;2023-03-13T15:17:36;22.90;99.90
9209;DHT22;4639;48.862;9.188;2023-03-13T15:20:02;22.90;99.90
9209;DHT22;4639;48.862;9.188;2023-03-13T15:22:34;22.90;99.90
9209;DHT22;4639;48.862;9.188;2023-03-13T15:25:00;22.90;99.90
9209;DHT22;4639;48.862;9.188;2023-03-13T15:27:26;22.80;99.90
9209;DHT22;4639;48.862;9.188;2023-03-13T15:29:52;22.70;99.90
9209;DHT22;4639;48.862;9.188;2023-03-13T15:32:29;22.80;99.90
9209;DHT22;4639;48.862;9.188;2023-03-13T15:34:55;22.90;99.90
9209;DHT22;4639;48.862;9.188;2023-03-13T15:37:24;23.10;99.90
9209;DHT22;4639;48.862;9.188;2023-03-13T15:39:50;22.50;99.90
9209;DHT22;4639;48.862;9.188;2023-03-13T15:42:15;22.40;99.90
9209;DHT22;4639;48.862;9.188;2023-03-13T15:44:41;22.60;99.90
9209;DHT22;4639;48.862;9.188;2023-03-13T15:47:18;22.40;99.90
9209;DHT22;4639;48.862;9.188;2023-03-13T15:49:43;22.60;99.90
9209;DHT22;4639;48.862;9.188;2023-03-13T15:52:17;22.70;99.90
9209;DHT22;4639;48.862;9.188;2023-03-13T15:54:44;22.60;99.90
9209;DHT22;4639;48.862;9.188;2023-03-13T15:57:37;22.60;99.90
9209;DHT22;4639;48.862;9.188;2023-03-13T16:00:18;22.40;99.90
9209;DHT22;4639;48.862;9.188;2023-03-13T16:02:44;22.30;99.90
9209;DHT22;4639;48.862;9.188;2023-03-13T16:05:10;22.30;99.90
9209;DHT22;4639;48.862;9.188;2023-03-13T16:07:35;22.40;99.90
9209;DHT22;4639;48.862;9.188;2023-03-13T16:10:01;22.50;99.90
9209;DHT22;4639;48.862;9.188;2023-03-13T16:12:27;22.70;99.90
9209;DHT22;4639;48.862;9.188;2023-03-13T16:14:52;22.70;99.90
9209;DHT22;4639;48.862;9.188;2023-03-13T16:17:19;22.60;99.90
9209;DHT22;4639;48.862;9.188;2023-03-13T16:19:45;22.60;99.90
9209;DHT22;4639;48.862;9.188;2023-03-13T16:22:11;22.50;99.90
9209;DHT22;4639;48.862;9.188;2023-03-13T16:24:38;22.40;99.90
9209;DHT22;4639;48.862;9.188;2023-03-13T16:27:15;22.10;99.90
9209;DHT22;4639;48.862;9.188;2023-03-13T16:29:41;22.00;99.90
9209;DHT22;4639;48.862;9.188;2023-03-13T16:32:11;21.90;99.90
9209;DHT22;4639;48.862;9.188;2023-03-13T16:34:37;21.80;99.90
9209;DHT22;4639;48.862;9.188;2023-03-13T16:37:13;21.60;99.90
9209;DHT22;4639;48.862;9.188;2023-03-13T16:39:40;21.60;99.90
9209;DHT22;4639;48.862;9.188;2023-03-13T16:42:06;21.40;99.90
9209;DHT22;4639;48.862;9.188;2023-03-13T16:44:32;21.20;99.90
9209;DHT22;4639;48.862;9.188;2023-03-13T16:46:57;21.10;99.90
9209;DHT22;4639;48.862;9.188;2023-03-13T16:49:23;21.10;99.90
9209;DHT22;4639;48.862;9.188;2023-03-13T16:51:48;21.10;99.90
9209;DHT22;4639;48.862;9.188;2023-03-13T16:54:14;21.00;99.90
9209;DHT22;4639;48.862;9.188;2023-03-13T16:56:48;21.00;99.90
9209;DHT22;4639;48.862;9.188;2023-03-13T16:59:15;21.10;99.90
9209;DHT22;4639;48.862;9.188;2023-03-13T17:01:43;21.30;99.90
9209;DHT22;4639;48.862;9.188;2023-03-13T17:04:08;21.00;99.90
9209;DHT22;4639;48.862;9.188;2023-03-13T17:06:37;21.00;99.90
9209;DHT22;4639;48.862;9.188;2023-03-13T17:09:04;21.00;99.90
9209;DHT22;4639;48.862;9.188;2023-03-13T17:11:31;21.00;99.90
9209;DHT22;4639;48.862;9.188;2023-03-13T17:13:57;20.80;99.90
9209;DHT22;4639;48.862;9.188;2023-03-13T17:16:35;20.80;99.90
9209;DHT22;4639;48.862;9.188;2023-03-13T17:19:03;20.80;99.90
9209;DHT22;4639;48.862;9.188;2023-03-13T17:21:31;20.80;99.90
9209;DHT22;4639;48.862;9.188;2023-03-13T17:23:57;20.70;99.90
9209;DHT22;4639;48.862;9.188;2023-03-13T17:26:33;20.80;99.90
9209;DHT22;4639;48.862;9.188;2023-03-13T17:28:59;20.80;99.90
9209;DHT22;4639;48.862;9.188;2023-03-13T17:31:26;21.10;99.90
9209;DHT22;4639;48.862;9.188;2023-03-13T17:33:52;20.80;99.90
9209;DHT22;4639;48.862;9.188;2023-03-13T17:36:25;20.70;99.90
9209;DHT22;4639;48.862;9.188;2023-03-13T17:38:56;20.80;99.90
9209;DHT22;4639;48.862;9.188;2023-03-13T17:41:25;20.60;99.90
9209;DHT22;4639;48.862;9.188;2023-03-13T17:43:51;20.70;99.90
9209;DHT22;4639;48.862;9.188;2023-03-13T17:46:33;20.50;99.90
9209;DHT22;4639;48.862;9.188;2023-03-13T17:49:01;20.60;99.90
9209;DHT22;4639;48.862;9.188;2023-03-13T17:51:29;20.50;99.90
9209;DHT22;4639;48.862;9.188;2023-03-13T17:53:55;20.50;99.90
9209;DHT22;4639;48.862;9.188;2023-03-13T17:56:28;20.50;99.90
9209;DHT22;4639;48.862;9.188;2023-03-13T17:58:57;20.40;99.90
9209;DHT22;4639;48.862;9.188;2023-03-13T18:01:25;20.40;99.90
9209;DHT22;4639;48.862;9.188;2023-03-13T18:03:51;20.40;99.90
9209;DHT22;4639;48.862;9.188;2023-03-13T18:06:26;20.30;99.90
9209;DHT22;4639;48.862;9.188;2023-03-13T18:08:54;20.40;99.90
9209;DHT22;4639;48.862;9.188;2023-03-13T18:11:21;20.40;99.90
9209;DHT22;4639;48.862;9.188;2023-03-13T18:13:47;20.30;99.90